Aspen, CO

4:35 AM MST on January 31, 2015 (GMT -0700)
Pitkin County Government Offices | Change Station
CLOSE
Current Station
Personal Weather Station
Location: Aspen, CO
Elevation: 7917 ft
Nearby Weather Stations

Elev 7917 ft 39.19 °N, 106.82 °W | Updated 21 seconds ago

Overcast
Overcast
32.7 °F
Feels Like 33 °F
N
0.0
Wind Variable Wind from East
Gusts 1.0 mph

Today
High -- | Low -- °F
--% Chance of Precip.
Yesterday
High -- | Low -- °F
Precip. -- in
7:15 AM 5:26 PM
Waxing Gibbous, 89% visible
Pressure 29.87 in
Visibility 10.0 miles
Clouds Mostly Cloudy 700 ft
Overcast 1100 ft
Windchill 33 °F
Dew Point 30 °F
Humidity 88%
Rainfall 0.00 in
Snow Depth Not available.
UV 0.0 out of 12
Pollen 1.00 out of 12
Air Quality Not available.
Flu Activity Not available.
SPECI KASE 311112Z 00000KT 10SM BKN007 OVC011 M01/M01 A2987 RMK AO2 CIG 006V010 T10061011

More Conditions Fewer Conditions

Pressure 29.87 in
Visibility 10.0 miles
Clouds Mostly Cloudy 700 ft
Overcast 1100 ft
Windchill 33 °F
Dew Point 30 °F
Humidity 88%
Rainfall 0.00 in
Snow Depth Not available.
UV 0.0 out of 12
Pollen 1.00 out of 12
Air Quality Not available.
Flu Activity Not available.
SPECI KASE 311112Z 00000KT 10SM BKN007 OVC011 M01/M01 A2987 RMK AO2 CIG 006V010 T10061011

More Conditions Fewer Conditions

10-Day Weather Forecast

Almanac

Astronomy

Jan. 31, 2015 Rise Set
Actual Time
Civil Twilight
Nautical Twilight
Astronomical Twilight
Moon
Length of Visible Light
Length of Day
Tomorrow will be .
, % of the Moon is Illuminated

Today's Extremes

State Highs State Lows

Community

WunderPhotos

Upload Photos

1,792,032 photos uploaded!

WunderBlogs® & News

Nearby

Air Quality

  Air Quality AQ Index Pollutant
Not available.

Snow Depth

Station Depth Elevation

Earthquake Activity

City Distance Mag. Time & Date
Minimum magnitude displayed is 2.5.

Coastal Water Temperatures

Place Temperature

Nearby Weather Stations